Observation data for Haskell on 09/12/2017      Previous  Date  Next       Current Mesonet Observations  Soil Data  Daily Summary Page  Observations in Plain Language
KHA1 120500Z 11004KT 20/09 A3004 RMK A01 T02040086  RH  048%=      5-min Rain = 0
KHA1 120505Z 12004KT 20/09 A3004 RMK A01 T02030086  RH  048%=      5-min Rain = 0
KHA1 120510Z 12005KT 20/09 A3004 RMK A01 T02010086  RH  049%=      5-min Rain = 0
KHA1 120515Z 12005KT 20/09 A3004 RMK A01 T02010086  RH  049%=      5-min Rain = 0
KHA1 120520Z 12004KT 20/09 A3004 RMK A01 T02000086  RH  049%=      5-min Rain = 0
KHA1 120525Z 12005KT 20/09 A3004 RMK A01 T02010087  RH  049%=      5-min Rain = 0
KHA1 120530Z 12005KT 20/09 A3004 RMK A01 T02000087  RH  049%=      5-min Rain = 0
KHA1 120535Z 12005KT 20/09 A3004 RMK A01 T02000088  RH  050%=      5-min Rain = 0
KHA1 120540Z 12005KT 20/09 A3004 RMK A01 T02010087  RH  049%=      5-min Rain = 0
KHA1 120545Z 11005KT 20/09 A3004 RMK A01 T02010087  RH  049%=      5-min Rain = 0
KHA1 120550Z 12004KT 20/09 A3004 RMK A01 T02000086  RH  049%=      5-min Rain = 0
KHA1 120555Z 12005KT 20/09 A3004 RMK A01 T01990086  RH  050%=      5-min Rain = 0
KHA1 120600Z 12005KT 20/09 A3004 RMK A01 T01990087  RH  050%=      5-min Rain = 0
KHA1 120605Z 13005KT 20/09 A3004 RMK A01 T01980087  RH  050%=      5-min Rain = 0
KHA1 120610Z 13005KT 20/09 A3003 RMK A01 T01980088  RH  050%=      5-min Rain = 0
KHA1 120615Z 13005KT 20/09 A3003 RMK A01 T01980088  RH  050%=      5-min Rain = 0
KHA1 120620Z 13005KT 20/09 A3003 RMK A01 T01970088  RH  051%=      5-min Rain = 0
KHA1 120625Z 13005KT 20/09 A3003 RMK A01 T01970089  RH  051%=      5-min Rain = 0
KHA1 120630Z 13004KT 20/09 A3003 RMK A01 T01970088  RH  051%=      5-min Rain = 0
KHA1 120635Z 12004KT 20/09 A3003 RMK A01 T01960088  RH  051%=      5-min Rain = 0
KHA1 120640Z 12003KT 19/09 A3003 RMK A01 T01940087  RH  051%=      5-min Rain = 0
KHA1 120645Z 14002KT 19/09 A3003 RMK A01 T01910090  RH  053%=      5-min Rain = 0
KHA1 120650Z 19001KT 18/09 A3003 RMK A01 T01770094  RH  060%=      5-min Rain = 0
KHA1 120655Z 17001KT 17/10 A3003 RMK A01 T01680096  RH  065%=      5-min Rain = 0
KHA1 120700Z 16000KT 16/10 A3003 RMK A01 T01630097  RH  067%=      5-min Rain = 0
KHA1 120705Z 16000KT 16/10 A3003 RMK A01 T01590098  RH  069%=      5-min Rain = 0
KHA1 120710Z 17001KT 16/10 A3003 RMK A01 T01570097  RH  070%=      5-min Rain = 0
KHA1 120715Z 19001KT 16/10 A3003 RMK A01 T01550097  RH  071%=      5-min Rain = 0
KHA1 120720Z 17001KT 15/10 A3003 RMK A01 T01540098  RH  072%=      5-min Rain = 0
KHA1 120725Z 17001KT 15/10 A3003 RMK A01 T01530098  RH  072%=      5-min Rain = 0
KHA1 120730Z 17001KT 15/10 A3002 RMK A01 T01510098  RH  073%=      5-min Rain = 0
KHA1 120735Z 18002KT 15/10 A3002 RMK A01 T01500098  RH  073%=      5-min Rain = 0
KHA1 120740Z 19002KT 15/10 A3002 RMK A01 T01490099  RH  074%=      5-min Rain = 0
KHA1 120745Z 19002KT 15/10 A3002 RMK A01 T01490100  RH  075%=      5-min Rain = 0
KHA1 120750Z 19002KT 15/10 A3002 RMK A01 T01530100  RH  073%=      5-min Rain = 0
KHA1 120755Z 18002KT 15/10 A3002 RMK A01 T01540099  RH  072%=      5-min Rain = 0
KHA1 120800Z 18003KT 16/10 A3002 RMK A01 T01550100  RH  072%=      5-min Rain = 0
KHA1 120805Z 19003KT 16/10 A3002 RMK A01 T01550097  RH  071%=      5-min Rain = 0
KHA1 120810Z 20003KT 15/09 A3002 RMK A01 T01520094  RH  071%=      5-min Rain = 0
KHA1 120815Z 22002KT 15/09 A3001 RMK A01 T01500094  RH  072%=      5-min Rain = 0
KHA1 120820Z 22002KT 15/10 A3002 RMK A01 T01490097  RH  073%=      5-min Rain = 0
KHA1 120825Z 22003KT 15/10 A3001 RMK A01 T01460098  RH  075%=      5-min Rain = 0
KHA1 120830Z 22003KT 14/10 A3001 RMK A01 T01430099  RH  077%=      5-min Rain = 0
KHA1 120835Z 22002KT 14/10 A3001 RMK A01 T01420099  RH  078%=      5-min Rain = 0
KHA1 120840Z 23003KT 15/10 A3001 RMK A01 T01460101  RH  077%=      5-min Rain = 0
KHA1 120845Z 24003KT 15/10 A3001 RMK A01 T01500100  RH  075%=      5-min Rain = 0
KHA1 120850Z 23003KT 15/10 A3001 RMK A01 T01470100  RH  076%=      5-min Rain = 0
KHA1 120855Z 23003KT 15/10 A3001 RMK A01 T01450100  RH  077%=      5-min Rain = 0
KHA1 120900Z 23002KT 15/10 A3001 RMK A01 T01480099  RH  075%=      5-min Rain = 0
KHA1 120905Z 23002KT 15/10 A3001 RMK A01 T01500097  RH  073%=      5-min Rain = 0
KHA1 120910Z 23003KT 15/10 A3001 RMK A01 T01500096  RH  073%=      5-min Rain = 0
KHA1 120915Z 23003KT 15/10 A3001 RMK A01 T01490099  RH  074%=      5-min Rain = 0
KHA1 120920Z 23003KT 15/10 A3001 RMK A01 T01490100  RH  075%=      5-min Rain = 0
KHA1 120925Z 22003KT 15/10 A30 RMK A01 T01490101  RH  075%=      5-min Rain = 0
KHA1 120930Z 23003KT 15/10 A30 RMK A01 T01480100  RH  075%=      5-min Rain = 0
KHA1 120935Z 23002KT 15/10 A30 RMK A01 T01470097  RH  074%=      5-min Rain = 0
KHA1 120940Z 24003KT 15/10 A30 RMK A01 T01490095  RH  072%=      5-min Rain = 0
KHA1 120945Z 24002KT 15/09 A30 RMK A01 T01520094  RH  070%=      5-min Rain = 0
KHA1 120950Z 24003KT 15/09 A30 RMK A01 T01520094  RH  070%=      5-min Rain = 0
KHA1 120955Z 24003KT 16/09 A30 RMK A01 T01560093  RH  068%=      5-min Rain = 0
KHA1 121000Z 25004KT 16/09 A30 RMK A01 T01580093  RH  067%=      5-min Rain = 0
KHA1 121005Z 25003KT 16/10 A30 RMK A01 T01550096  RH  070%=      5-min Rain = 0
KHA1 121010Z 25003KT 15/10 A30 RMK A01 T01520097  RH  072%=      5-min Rain = 0
KHA1 121015Z 24003KT 15/10 A30 RMK A01 T01520097  RH  072%=      5-min Rain = 0
KHA1 121020Z 24003KT 15/10 A30 RMK A01 T01520095  RH  071%=      5-min Rain = 0
KHA1 121025Z 24003KT 16/09 A30 RMK A01 T01550094  RH  069%=      5-min Rain = 0
KHA1 121030Z 25003KT 16/09 A3001 RMK A01 T01570094  RH  068%=      5-min Rain = 0
KHA1 121035Z 26003KT 16/09 A3001 RMK A01 T01560092  RH  067%=      5-min Rain = 0
KHA1 121040Z 27003KT 15/09 A3001 RMK A01 T01530091  RH  068%=      5-min Rain = 0
KHA1 121045Z 28003KT 15/09 A3001 RMK A01 T01460091  RH  072%=      5-min Rain = 0
KHA1 121050Z 28003KT 14/09 A3001 RMK A01 T01430092  RH  074%=      5-min Rain = 0
KHA1 121055Z 28003KT 14/09 A3001 RMK A01 T01410092  RH  074%=      5-min Rain = 0
KHA1 121100Z 28003KT 14/09 A3001 RMK A01 T01410093  RH  075%=      5-min Rain = 0
KHA1 121105Z 29003KT 14/09 A3001 RMK A01 T01410093  RH  075%=      5-min Rain = 0
KHA1 121110Z 29003KT 14/09 A3001 RMK A01 T01430094  RH  074%=      5-min Rain = 0
KHA1 121115Z 28003KT 14/09 A3001 RMK A01 T01430094  RH  074%=      5-min Rain = 0
KHA1 121120Z 28003KT 14/09 A3001 RMK A01 T01430094  RH  075%=      5-min Rain = 0
KHA1 121125Z 28003KT 14/10 A3001 RMK A01 T01420095  RH  075%=      5-min Rain = 0
KHA1 121130Z 29003KT 14/10 A3001 RMK A01 T01410095  RH  076%=      5-min Rain = 0
KHA1 121135Z 32002KT 14/10 A3001 RMK A01 T01390095  RH  077%=      5-min Rain = 0
KHA1 121140Z 34002KT 14/10 A3001 RMK A01 T01380097  RH  079%=      5-min Rain = 0
KHA1 121145Z 01003KT 14/10 A3002 RMK A01 T01390100  RH  080%=      5-min Rain = 0
KHA1 121150Z 36003KT 14/10 A3002 RMK A01 T01390100  RH  080%=      5-min Rain = 0
KHA1 121155Z 02003KT 14/10 A3002 RMK A01 T01380099  RH  080%=      5-min Rain = 0
KHA1 121200Z 02003KT 14/10 A3002 RMK A01 T01370097  RH  079%=      5-min Rain = 0
KHA1 121205Z 03004KT 14/09 A3002 RMK A01 T01360094  RH  078%=      5-min Rain = 0
KHA1 121210Z 02004KT 14/09 A3002 RMK A01 T01360092  RH  077%=      5-min Rain = 0
KHA1 121215Z 01003KT 14/09 A3002 RMK A01 T01350091  RH  077%=      5-min Rain = 0
KHA1 121220Z 01003KT 14/09 A3002 RMK A01 T01350091  RH  077%=      5-min Rain = 0
KHA1 121225Z 00003KT 14/09 A3002 RMK A01 T01350092  RH  077%=      5-min Rain = 0
KHA1 121230Z 01003KT 14/09 A3002 RMK A01 T01360093  RH  078%=      5-min Rain = 0
KHA1 121235Z 01003KT 14/09 A3002 RMK A01 T01360094  RH  078%=      5-min Rain = 0
KHA1 121240Z 01003KT 14/10 A3002 RMK A01 T01360095  RH  078%=      5-min Rain = 0
KHA1 121245Z 02002KT 14/09 A3002 RMK A01 T01360094  RH  078%=      5-min Rain = 0
KHA1 121250Z 01002KT 14/10 A3002 RMK A01 T01370095  RH  078%=      5-min Rain = 0
KHA1 121255Z 00002KT 14/10 A3002 RMK A01 T01390097  RH  078%=      5-min Rain = 0
KHA1 121300Z 01002KT 14/10 A3002 RMK A01 T01420099  RH  078%=      5-min Rain = 0
KHA1 121305Z 01002KT 15/10 A3002 RMK A01 T01470102  RH  077%=      5-min Rain = 0
KHA1 121310Z 34003KT 15/11 A3002 RMK A01 T01520105  RH  076%=      5-min Rain = 0
KHA1 121315Z 33003KT 15/11 A3002 RMK A01 T01540106  RH  076%=      5-min Rain = 0
KHA1 121320Z 32003KT 15/11 A3002 RMK A01 T01540106  RH  076%=      5-min Rain = 0
KHA1 121325Z 33003KT 16/11 A3002 RMK A01 T01570111  RH  077%=      5-min Rain = 0
KHA1 121330Z 00002KT 16/11 A3002 RMK A01 T01600113  RH  076%=      5-min Rain = 0
KHA1 121335Z 36002KT 17/11 A3002 RMK A01 T01650114  RH  075%=      5-min Rain = 0
KHA1 121340Z 35002KT 17/12 A3002 RMK A01 T01710119  RH  074%=      5-min Rain = 0
KHA1 121345Z 35002KT 18/12 A3002 RMK A01 T01760121  RH  073%=      5-min Rain = 0
KHA1 121350Z 35002KT 18/13 A3002 RMK A01 T01830127  RH  072%=      5-min Rain = 0
KHA1 121355Z 36002KT 19/12 A3002 RMK A01 T01870123  RH  069%=      5-min Rain = 0
KHA1 121400Z 01002KT 19/12 A3002 RMK A01 T01900119  RH  066%=      5-min Rain = 0
KHA1 121405Z 02003KT 19/11 A3002 RMK A01 T01930114  RH  062%=      5-min Rain = 0
KHA1 121410Z 01002KT 20/11 A3002 RMK A01 T01960113  RH  061%=      5-min Rain = 0
KHA1 121415Z 01002KT 20/12 A3002 RMK A01 T02010115  RH  060%=      5-min Rain = 0
KHA1 121420Z 00002KT 21/12 A3002 RMK A01 T02060115  RH  058%=      5-min Rain = 0
KHA1 121425Z 01002KT 21/11 A3002 RMK A01 T02090113  RH  056%=      5-min Rain = 0
KHA1 121430Z 01002KT 21/11 A3002 RMK A01 T02120113  RH  055%=      5-min Rain = 0
KHA1 121435Z 00001KT 21/11 A3002 RMK A01 T02140113  RH  054%=      5-min Rain = 0
KHA1 121440Z 02002KT 22/11 A3002 RMK A01 T02160113  RH  054%=      5-min Rain = 0
KHA1 121445Z 00002KT 22/11 A3002 RMK A01 T02200114  RH  053%=      5-min Rain = 0
KHA1 121450Z 36002KT 22/12 A3002 RMK A01 T02230116  RH  052%=      5-min Rain = 0
KHA1 121455Z 34002KT 23/11 A3002 RMK A01 T02260114  RH  051%=      5-min Rain = 0
KHA1 121500Z 33002KT 23/11 A3002 RMK A01 T02290114  RH  050%=      5-min Rain = 0
KHA1 121505Z 33001KT 23/11 A3002 RMK A01 T02330110  RH  047%=      5-min Rain = 0
KHA1 121510Z 31001KT 24/12 A3002 RMK A01 T02370115  RH  048%=      5-min Rain = 0
KHA1 121515Z 35002KT 24/11 A3002 RMK A01 T02410114  RH  047%=      5-min Rain = 0
KHA1 121520Z 29001KT 24/12 A3002 RMK A01 T02440116  RH  046%=      5-min Rain = 0
KHA1 121525Z 29002KT 25/11 A3002 RMK A01 T02470111  RH  044%=      5-min Rain = 0
KHA1 121530Z 27002KT 25/11 A3002 RMK A01 T02500111  RH  043%=      5-min Rain = 0
KHA1 121535Z 27004KT 25/11 A3002 RMK A01 T02520109  RH  042%=      5-min Rain = 0
KHA1 121540Z 27003KT 25/10 A3002 RMK A01 T02540103  RH  040%=      5-min Rain = 0
KHA1 121545Z 28003KT 26/10 A3001 RMK A01 T02560103  RH  039%=      5-min Rain = 0
KHA1 121550Z 28002KT 26/10 A3001 RMK A01 T02590097  RH  037%=      5-min Rain = 0
KHA1 121555Z 27003KT 26/10 A3001 RMK A01 T02620097  RH  036%=      5-min Rain = 0
KHA1 121600Z 26001KT 27/09 A3001 RMK A01 T02650093  RH  035%=      5-min Rain = 0
KHA1 121605Z 28002KT 27/10 A3001 RMK A01 T02670095  RH  035%=      5-min Rain = 0
KHA1 121610Z 33002KT 27/10 A3001 RMK A01 T02680096  RH  035%=      5-min Rain = 0
KHA1 121615Z 36001KT 27/10 A3001 RMK A01 T02700096  RH  035%=      5-min Rain = 0
KHA1 121620Z 26003KT 27/09 A3001 RMK A01 T02720094  RH  034%=      5-min Rain = 0
KHA1 121625Z 31002KT 27/10 A3001 RMK A01 T02740103  RH  035%=      5-min Rain = 0
KHA1 121630Z 35002KT 28/10 A3001 RMK A01 T02770099  RH  034%=      5-min Rain = 0
KHA1 121635Z 32003KT 28/10 A3001 RMK A01 T02780098  RH  033%=      5-min Rain = 0
KHA1 121640Z 33003KT 28/10 A30 RMK A01 T02760097  RH  033%=      5-min Rain = 0
KHA1 121645Z 04003KT 28/09 A30 RMK A01 T02760091  RH  032%=      5-min Rain = 0
KHA1 121650Z 04002KT 28/09 A30 RMK A01 T02760091  RH  032%=      5-min Rain = 0
KHA1 121655Z 30003KT 28/10 A30 RMK A01 T02830102  RH  034%=      5-min Rain = 0
KHA1 121700Z 28002KT 28/09 A30 RMK A01 T02830094  RH  032%=      5-min Rain = 0
KHA1 121705Z 28002KT 28/10 A30 RMK A01 T02840095  RH  032%=      5-min Rain = 0
KHA1 121710Z 33002KT 28/09 A2999 RMK A01 T02820094  RH  032%=      5-min Rain = 0
KHA1 121715Z 33002KT 28/10 A2999 RMK A01 T02820096  RH  032%=      5-min Rain = 0
KHA1 121720Z 30005KT 28/10 A2999 RMK A01 T02820100  RH  033%=      5-min Rain = 0
KHA1 121725Z 29002KT 28/10 A2999 RMK A01 T02830098  RH  032%=      5-min Rain = 0
KHA1 121730Z 30002G8KT 29/10 A2999 RMK A01 T02860098  RH  032%=      5-min Rain = 0
KHA1 121735Z 26004KT 29/10 A2999 RMK A01 T02890099  RH  032%=      5-min Rain = 0
KHA1 121740Z 28004KT 29/10 A2998 RMK A01 T02880096  RH  031%=      5-min Rain = 0
KHA1 121745Z 29003KT 29/10 A2998 RMK A01 T02900095  RH  031%=      5-min Rain = 0
KHA1 121750Z 32002KT 29/09 A2998 RMK A01 T02910094  RH  030%=      5-min Rain = 0
KHA1 121755Z 34002KT 29/10 A2998 RMK A01 T02930095  RH  030%=      5-min Rain = 0
KHA1 121800Z 02003KT 29/10 A2997 RMK A01 T02920095  RH  030%=      5-min Rain = 0
KHA1 121805Z 06001KT 29/09 A2997 RMK A01 T02910093  RH  030%=      5-min Rain = 0
KHA1 121810Z 36003KT 29/10 A2997 RMK A01 T02940097  RH  030%=      5-min Rain = 0
KHA1 121815Z 31004KT 29/10 A2997 RMK A01 T02940097  RH  030%=      5-min Rain = 0
KHA1 121820Z 34002KT 30/09 A2996 RMK A01 T02970094  RH  029%=      5-min Rain = 0
KHA1 121825Z 32002KT 30/09 A2996 RMK A01 T03010093  RH  028%=      5-min Rain = 0
KHA1 121830Z 35004KT 30/09 A2996 RMK A01 T03010094  RH  028%=      5-min Rain = 0
KHA1 121835Z 02003KT 30/09 A2995 RMK A01 T03010094  RH  029%=      5-min Rain = 0
KHA1 121840Z 01004KT 30/10 A2995 RMK A01 T03010096  RH  029%=      5-min Rain = 0
KHA1 121845Z 34002KT 30/09 A2995 RMK A01 T03040092  RH  028%=      5-min Rain = 0
KHA1 121850Z 35003KT 30/09 A2995 RMK A01 T03040093  RH  028%=      5-min Rain = 0
KHA1 121855Z 35005KT 31/10 A2995 RMK A01 T03060098  RH  028%=      5-min Rain = 0
KHA1 121900Z 33003KT 31/09 A2995 RMK A01 T03050091  RH  027%=      5-min Rain = 0
KHA1 121905Z 36005KT 31/10 A2994 RMK A01 T03080100  RH  028%=      5-min Rain = 0
KHA1 121910Z 02005KT 31/09 A2994 RMK A01 T03080093  RH  027%=      5-min Rain = 0
KHA1 121915Z 34004KT 31/09 A2994 RMK A01 T03060090  RH  027%=      5-min Rain = 0
KHA1 121920Z 35004KT 31/10 A2993 RMK A01 T03050096  RH  028%=      5-min Rain = 0
KHA1 121925Z 34004KT 31/09 A2993 RMK A01 T03080092  RH  027%=      5-min Rain = 0
KHA1 121930Z 31002KT 31/09 A2993 RMK A01 T03100089  RH  026%=      5-min Rain = 0
KHA1 121935Z 34003G8KT 32/10 A2992 RMK A01 T03150097  RH  027%=      5-min Rain = 0
KHA1 121940Z 35002KT 31/09 A2992 RMK A01 T03130089  RH  026%=      5-min Rain = 0
KHA1 121945Z 30004KT 31/09 A2992 RMK A01 T03140094  RH  026%=      5-min Rain = 0
KHA1 121950Z 00006G12KT 31/09 A2992 RMK A01 T03120087  RH  025%=      5-min Rain = 0
KHA1 121955Z 03007KT 31/08 A2991 RMK A01 T03130082  RH  024%=      5-min Rain = 0
KHA1 122000Z 36006KT 31/09 A2991 RMK A01 T03120091  RH  026%=      5-min Rain = 0
KHA1 122005Z 00004KT 31/08 A2991 RMK A01 T03130084  RH  025%=      5-min Rain = 0
KHA1 122010Z 03003KT 31/08 A2991 RMK A01 T03100082  RH  025%=      5-min Rain = 0
KHA1 122015Z 32001KT 32/09 A2991 RMK A01 T03150087  RH  025%=      5-min Rain = 0
KHA1 122020Z 28002KT 32/08 A299 RMK A01 T03170083  RH  024%=      5-min Rain = 0
KHA1 122025Z 33005G10KT 32/09 A299 RMK A01 T03160088  RH  025%=      5-min Rain = 0
KHA1 122030Z 33006KT 32/09 A299 RMK A01 T03160088  RH  025%=      5-min Rain = 0
KHA1 122035Z 32005KT 32/09 A299 RMK A01 T03180090  RH  025%=      5-min Rain = 0
KHA1 122040Z 35008KT 32/08 A2989 RMK A01 T03170081  RH  024%=      5-min Rain = 0
KHA1 122045Z 01005KT 32/08 A2989 RMK A01 T03150079  RH  024%=      5-min Rain = 0
KHA1 122050Z 34003KT 32/08 A2989 RMK A01 T03200075  RH  022%=      5-min Rain = 0
KHA1 122055Z 36002G7KT 32/07 A2989 RMK A01 T03190068  RH  021%=      5-min Rain = 0
KHA1 122100Z 02004G9KT 32/08 A2988 RMK A01 T03200075  RH  022%=      5-min Rain = 0
KHA1 122105Z 00003KT 32/07 A2988 RMK A01 T03180071  RH  022%=      5-min Rain = 0
KHA1 122110Z 04003KT 32/07 A2988 RMK A01 T03200069  RH  021%=      5-min Rain = 0
KHA1 122115Z 04004KT 32/07 A2988 RMK A01 T03230071  RH  021%=      5-min Rain = 0
KHA1 122120Z 04007KT 32/07 A2988 RMK A01 T03230070  RH  021%=      5-min Rain = 0
KHA1 122125Z 01005KT 32/08 A2987 RMK A01 T03230078  RH  023%=      5-min Rain = 0
KHA1 122130Z 34005KT 32/08 A2987 RMK A01 T03200083  RH  024%=      5-min Rain = 0
KHA1 122135Z 35007KT 32/09 A2987 RMK A01 T03190091  RH  025%=      5-min Rain = 0
KHA1 122140Z 35007KT 32/09 A2987 RMK A01 T03160089  RH  025%=      5-min Rain = 0
KHA1 122145Z 35005KT 32/08 A2987 RMK A01 T03180084  RH  024%=      5-min Rain = 0
KHA1 122150Z 36003KT 32/09 A2987 RMK A01 T03160085  RH  025%=      5-min Rain = 0
KHA1 122155Z 35005KT 32/08 A2986 RMK A01 T03180081  RH  024%=      5-min Rain = 0
KHA1 122200Z 02005KT 32/08 A2986 RMK A01 T03200077  RH  023%=      5-min Rain = 0
KHA1 122205Z 04005KT 32/07 A2986 RMK A01 T03210069  RH  021%=      5-min Rain = 0
KHA1 122210Z 00005KT 32/07 A2986 RMK A01 T03230074  RH  022%=      5-min Rain = 0
KHA1 122215Z 01003KT 32/08 A2986 RMK A01 T03220076  RH  022%=      5-min Rain = 0
KHA1 122220Z 03007KT 32/08 A2986 RMK A01 T03210077  RH  023%=      5-min Rain = 0
KHA1 122225Z 02007KT 32/08 A2986 RMK A01 T03160076  RH  023%=      5-min Rain = 0
KHA1 122230Z 02007KT 31/08 A2986 RMK A01 T03110076  RH  024%=      5-min Rain = 0
KHA1 122235Z 00006KT 31/09 A2986 RMK A01 T03090092  RH  027%=      5-min Rain = 0
KHA1 122240Z 01006KT 30/10 A2986 RMK A01 T03040095  RH  028%=      5-min Rain = 0
KHA1 122245Z 02006KT 31/09 A2986 RMK A01 T03070091  RH  027%=      5-min Rain = 0
KHA1 122250Z 02005KT 31/08 A2985 RMK A01 T03130077  RH  024%=      5-min Rain = 0
KHA1 122255Z 01004KT 32/09 A2985 RMK A01 T03150090  RH  026%=      5-min Rain = 0
KHA1 122300Z 03004KT 32/09 A2985 RMK A01 T03150092  RH  026%=      5-min Rain = 0
KHA1 122305Z 02007KT 31/09 A2985 RMK A01 T03120087  RH  025%=      5-min Rain = 0
KHA1 122310Z 02005KT 31/08 A2985 RMK A01 T03120084  RH  025%=      5-min Rain = 0
KHA1 122315Z 02005KT 31/09 A2985 RMK A01 T03120085  RH  025%=      5-min Rain = 0
KHA1 122320Z 03005KT 31/08 A2985 RMK A01 T03110083  RH  025%=      5-min Rain = 0
KHA1 122325Z 00005KT 31/10 A2985 RMK A01 T03100095  RH  027%=      5-min Rain = 0
KHA1 122330Z 01006KT 30/10 A2985 RMK A01 T03040095  RH  028%=      5-min Rain = 0
KHA1 122335Z 02004KT 31/09 A2985 RMK A01 T03050094  RH  028%=      5-min Rain = 0
KHA1 122340Z 02004KT 31/09 A2985 RMK A01 T03080094  RH  027%=      5-min Rain = 0
KHA1 122345Z 04005KT 31/09 A2985 RMK A01 T03050092  RH  028%=      5-min Rain = 0
KHA1 122350Z 06006KT 31/07 A2984 RMK A01 T03100067  RH  023%=      5-min Rain = 0
KHA1 122355Z 05007KT 31/07 A2984 RMK A01 T03100065  RH  022%=      5-min Rain = 0
KHA1 130000Z 06006KT 31/07 A2984 RMK A01 T03090067  RH  023%=      5-min Rain = 0
KHA1 130005Z 06008KT 31/07 A2984 RMK A01 T03070065  RH  023%=      5-min Rain = 0
KHA1 130010Z 06006KT 31/07 A2984 RMK A01 T03050068  RH  023%=      5-min Rain = 0
KHA1 130015Z 07006KT 30/07 A2984 RMK A01 T03040070  RH  024%=      5-min Rain = 0
KHA1 130020Z 07007KT 30/07 A2984 RMK A01 T03010070  RH  024%=      5-min Rain = 0
KHA1 130025Z 06006KT 30/07 A2984 RMK A01 T03000070  RH  024%=      5-min Rain = 0
KHA1 130030Z 06006KT 30/07 A2984 RMK A01 T02980070  RH  025%=      5-min Rain = 0
KHA1 130035Z 06006KT 30/07 A2984 RMK A01 T02960070  RH  025%=      5-min Rain = 0
KHA1 130040Z 06006KT 29/07 A2984 RMK A01 T02940070  RH  025%=      5-min Rain = 0
KHA1 130045Z 07005KT 29/07 A2984 RMK A01 T02900072  RH  026%=      5-min Rain = 0
KHA1 130050Z 07005KT 29/07 A2984 RMK A01 T02860072  RH  027%=      5-min Rain = 0
KHA1 130055Z 08005KT 28/07 A2983 RMK A01 T02830073  RH  027%=      5-min Rain = 0
KHA1 130100Z 07005KT 28/07 A2983 RMK A01 T02810072  RH  027%=      5-min Rain = 0
KHA1 130105Z 07006KT 28/07 A2984 RMK A01 T02790072  RH  028%=      5-min Rain = 0
KHA1 130110Z 07005KT 28/07 A2984 RMK A01 T02760070  RH  028%=      5-min Rain = 0
KHA1 130115Z 07005KT 27/07 A2984 RMK A01 T02740069  RH  028%=      5-min Rain = 0
KHA1 130120Z 07005KT 27/07 A2984 RMK A01 T02730067  RH  028%=      5-min Rain = 0
KHA1 130125Z 08005KT 27/07 A2984 RMK A01 T02700066  RH  028%=      5-min Rain = 0
KHA1 130130Z 10004KT 27/07 A2984 RMK A01 T02690068  RH  029%=      5-min Rain = 0
KHA1 130135Z 09004KT 27/07 A2984 RMK A01 T02680067  RH  029%=      5-min Rain = 0
KHA1 130140Z 08004KT 27/07 A2984 RMK A01 T02670066  RH  028%=      5-min Rain = 0
KHA1 130145Z 08005KT 27/07 A2984 RMK A01 T02650066  RH  029%=      5-min Rain = 0
KHA1 130150Z 07005KT 26/07 A2984 RMK A01 T02630066  RH  029%=      5-min Rain = 0
KHA1 130155Z 08005KT 26/07 A2984 RMK A01 T02600065  RH  030%=      5-min Rain = 0
KHA1 130200Z 09004KT 26/07 A2985 RMK A01 T02590065  RH  030%=      5-min Rain = 0
KHA1 130205Z 09004KT 26/07 A2985 RMK A01 T02580065  RH  030%=      5-min Rain = 0
KHA1 130210Z 09004KT 26/07 A2985 RMK A01 T02570065  RH  030%=      5-min Rain = 0
KHA1 130215Z 09004KT 26/07 A2985 RMK A01 T02560065  RH  030%=      5-min Rain = 0
KHA1 130220Z 09004KT 26/07 A2985 RMK A01 T02560065  RH  030%=      5-min Rain = 0
KHA1 130225Z 09004KT 26/07 A2986 RMK A01 T02560065  RH  030%=      5-min Rain = 0
KHA1 130230Z 09004KT 26/07 A2986 RMK A01 T02560065  RH  030%=      5-min Rain = 0
KHA1 130235Z 09004KT 26/06 A2986 RMK A01 T02550064  RH  030%=      5-min Rain = 0
KHA1 130240Z 09004KT 25/07 A2986 RMK A01 T02540065  RH  031%=      5-min Rain = 0
KHA1 130245Z 09004KT 25/07 A2986 RMK A01 T02520065  RH  031%=      5-min Rain = 0
KHA1 130250Z 09004KT 25/07 A2986 RMK A01 T02510065  RH  031%=      5-min Rain = 0
KHA1 130255Z 09004KT 25/07 A2986 RMK A01 T02510066  RH  031%=      5-min Rain = 0
KHA1 130300Z 09004KT 25/07 A2986 RMK A01 T02500066  RH  031%=      5-min Rain = 0
KHA1 130305Z 09005KT 25/07 A2986 RMK A01 T02500066  RH  032%=      5-min Rain = 0
KHA1 130310Z 09006KT 25/07 A2986 RMK A01 T02490066  RH  032%=      5-min Rain = 0
KHA1 130315Z 09008KT 25/07 A2986 RMK A01 T02500068  RH  032%=      5-min Rain = 0
KHA1 130320Z 09008KT 25/07 A2986 RMK A01 T02500071  RH  033%=      5-min Rain = 0
KHA1 130325Z 09008KT 25/07 A2986 RMK A01 T02470073  RH  034%=      5-min Rain = 0
KHA1 130330Z 09007KT 24/07 A2986 RMK A01 T02440074  RH  035%=      5-min Rain = 0
KHA1 130335Z 09007KT 24/08 A2986 RMK A01 T02420076  RH  035%=      5-min Rain = 0
KHA1 130340Z 09006G11KT 24/08 A2987 RMK A01 T02400076  RH  036%=      5-min Rain = 0
KHA1 130345Z 09006KT 24/08 A2986 RMK A01 T02380075  RH  036%=      5-min Rain = 0
KHA1 130350Z 09005KT 24/08 A2986 RMK A01 T02370076  RH  037%=      5-min Rain = 0
KHA1 130355Z 09005KT 24/08 A2987 RMK A01 T02350077  RH  037%=      5-min Rain = 0
KHA1 130400Z 09006KT 23/08 A2987 RMK A01 T02340076  RH  037%=      5-min Rain = 0
KHA1 130405Z 09006KT 23/08 A2986 RMK A01 T02330075  RH  037%=      5-min Rain = 0
KHA1 130410Z 09005KT 23/08 A2986 RMK A01 T02320075  RH  038%=      5-min Rain = 0
KHA1 130415Z 09005KT 23/08 A2986 RMK A01 T02300075  RH  038%=      5-min Rain = 0
KHA1 130420Z 11004KT 23/08 A2986 RMK A01 T02290076  RH  038%=      5-min Rain = 0
KHA1 130425Z 10004KT 23/08 A2987 RMK A01 T02270077  RH  039%=      5-min Rain = 0
KHA1 130430Z 11003KT 23/08 A2987 RMK A01 T02260077  RH  040%=      5-min Rain = 0
KHA1 130435Z 12004KT 23/08 A2987 RMK A01 T02250078  RH  040%=      5-min Rain = 0
KHA1 130440Z 12004KT 22/08 A2987 RMK A01 T02240078  RH  040%=      5-min Rain = 0
KHA1 130445Z 12003KT 22/08 A2987 RMK A01 T02230079  RH  041%=      5-min Rain = 0
KHA1 130450Z 11003KT 22/08 A2986 RMK A01 T02220078  RH  041%=      5-min Rain = 0
KHA1 130455Z 11003KT 22/08 A2987 RMK A01 T02210079  RH  041%=      5-min Rain = 0

Page generated in 0.0284 seconds.